createdAt,value
2019-03-28T00:00:41.739Z,3.00
2019-03-28T00:03:10.124Z,3.00
2019-03-28T00:05:38.555Z,3.00
2019-03-28T00:08:06.947Z,3.00
2019-03-28T00:10:35.441Z,2.90
2019-03-28T00:13:03.839Z,2.70
2019-03-28T00:15:32.373Z,2.70
2019-03-28T00:18:01.290Z,2.70
2019-03-28T00:20:29.704Z,2.70
2019-03-28T00:23:02.647Z,2.70
2019-03-28T00:25:31.306Z,2.70
2019-03-28T00:27:59.691Z,2.70
2019-03-28T00:30:28.097Z,2.80
2019-03-28T00:32:56.494Z,2.80
2019-03-28T00:35:24.896Z,2.70
2019-03-28T00:37:53.300Z,2.70
2019-03-28T00:40:21.699Z,2.70
2019-03-28T00:42:50.124Z,2.60
2019-03-28T00:45:18.519Z,2.40
2019-03-28T00:47:46.939Z,2.30
2019-03-28T00:50:15.476Z,2.20
2019-03-28T00:52:43.905Z,2.10
2019-03-28T00:55:12.303Z,2.10
2019-03-28T00:57:40.724Z,2.20
2019-03-28T01:00:09.553Z,2.20
2019-03-28T01:02:37.974Z,2.20
2019-03-28T01:05:06.816Z,2.20
2019-03-28T01:07:35.233Z,2.30
2019-03-28T01:10:04.673Z,2.20
2019-03-28T01:12:33.089Z,2.20
2019-03-28T01:15:01.491Z,2.20
2019-03-28T01:17:30.267Z,2.30
2019-03-28T01:19:58.762Z,2.30
2019-03-28T01:22:27.186Z,2.30
2019-03-28T01:24:57.838Z,2.30
2019-03-28T01:27:25.722Z,2.30
2019-03-28T01:29:54.133Z,2.40
2019-03-28T01:32:22.548Z,2.40
2019-03-28T01:34:50.952Z,2.30
2019-03-28T01:37:19.372Z,2.40
2019-03-28T01:39:47.757Z,2.40
2019-03-28T01:42:16.174Z,2.40
2019-03-28T01:44:44.582Z,2.50
2019-03-28T01:47:12.999Z,2.40
2019-03-28T01:49:41.404Z,2.40
2019-03-28T01:52:09.877Z,2.40
2019-03-28T01:54:38.282Z,2.40
2019-03-28T01:57:11.182Z,2.40
2019-03-28T01:59:36.836Z,2.20
2019-03-28T02:02:06.209Z,2.20
2019-03-28T02:04:34.595Z,2.20
2019-03-28T02:07:03.015Z,2.20
2019-03-28T02:09:32.315Z,2.10
2019-03-28T02:12:00.812Z,2.10
2019-03-28T02:14:29.314Z,2.00
2019-03-28T02:16:57.694Z,2.00
2019-03-28T02:19:26.103Z,1.90
2019-03-28T02:21:54.494Z,1.90
2019-03-28T02:24:24.484Z,1.90
2019-03-28T02:26:52.887Z,1.90
2019-03-28T02:29:21.291Z,1.90
2019-03-28T02:31:49.691Z,1.90
2019-03-28T02:34:18.104Z,1.90
2019-03-28T02:36:46.533Z,2.00
2019-03-28T02:39:14.946Z,1.80
2019-03-28T02:41:43.341Z,1.80
2019-03-28T02:44:12.006Z,1.70
2019-03-28T02:46:40.714Z,1.70
2019-03-28T02:49:09.124Z,1.80
2019-03-28T02:51:37.516Z,1.70
2019-03-28T02:54:06.776Z,1.80
2019-03-28T02:56:35.178Z,1.90
2019-03-28T02:59:03.577Z,1.90
2019-03-28T03:01:31.979Z,2.00
2019-03-28T03:04:00.392Z,2.00
2019-03-28T03:06:28.807Z,1.90
2019-03-28T03:08:57.211Z,2.00
2019-03-28T03:11:25.612Z,2.10
2019-03-28T03:13:54.030Z,2.10
2019-03-28T03:16:22.837Z,2.10
2019-03-28T03:18:51.424Z,2.10
2019-03-28T03:21:19.903Z,2.20
2019-03-28T03:23:48.343Z,2.20
2019-03-28T03:26:16.719Z,2.10
2019-03-28T03:28:45.140Z,2.10
2019-03-28T03:31:13.542Z,2.20
2019-03-28T03:33:41.954Z,2.20
2019-03-28T03:36:10.361Z,2.20
2019-03-28T03:38:38.777Z,2.20
2019-03-28T03:41:07.247Z,2.10
2019-03-28T03:43:35.662Z,2.10
2019-03-28T03:46:04.061Z,2.10
2019-03-28T03:48:32.458Z,2.10
2019-03-28T03:51:00.858Z,2.20
2019-03-28T03:53:29.278Z,2.20
2019-03-28T03:55:57.693Z,2.20
2019-03-28T03:58:26.099Z,2.20
2019-03-28T04:00:54.516Z,2.30
2019-03-28T04:03:22.898Z,2.30
2019-03-28T04:05:51.325Z,2.40
2019-03-28T04:08:19.713Z,2.40
2019-03-28T04:10:48.124Z,2.40
2019-03-28T04:13:16.506Z,2.30
2019-03-28T04:15:44.927Z,2.30
2019-03-28T04:18:13.929Z,2.10
2019-03-28T04:20:42.522Z,2.00
2019-03-28T04:23:11.003Z,2.00
2019-03-28T04:25:39.956Z,2.00
2019-03-28T04:28:08.588Z,1.90
2019-03-28T04:30:37.003Z,1.90
2019-03-28T04:33:05.415Z,1.80
2019-03-28T04:35:34.814Z,1.70
2019-03-28T04:38:03.221Z,1.70
2019-03-28T04:40:31.634Z,1.70
2019-03-28T04:43:00.065Z,1.70
2019-03-28T04:45:28.539Z,1.70
2019-03-28T04:47:56.940Z,1.70
2019-03-28T04:50:25.362Z,1.70
2019-03-28T04:52:53.756Z,1.70
2019-03-28T04:55:22.171Z,1.70
2019-03-28T04:57:50.573Z,1.60
2019-03-28T05:00:19.428Z,1.50
2019-03-28T05:02:47.824Z,1.40
2019-03-28T05:05:16.217Z,1.30
2019-03-28T05:07:44.610Z,1.30
2019-03-28T05:10:13.457Z,1.30
2019-03-28T05:12:41.841Z,1.30
2019-03-28T05:15:10.896Z,1.30
2019-03-28T05:17:39.348Z,1.30
2019-03-28T05:20:08.641Z,1.40
2019-03-28T05:22:37.025Z,1.20
2019-03-28T05:25:06.697Z,1.20
2019-03-28T05:27:35.100Z,1.20
2019-03-28T05:30:08.641Z,1.10
2019-03-28T05:32:37.099Z,1.20
2019-03-28T05:35:07.052Z,1.20
2019-03-28T05:37:36.377Z,1.20
2019-03-28T05:40:06.470Z,1.20
2019-03-28T05:42:34.875Z,1.30
2019-03-28T05:45:04.355Z,1.30
2019-03-28T05:47:32.777Z,1.40
2019-03-28T05:50:01.204Z,1.40
2019-03-28T05:52:29.608Z,1.50
2019-03-28T05:54:58.023Z,1.50
2019-03-28T05:57:26.427Z,1.60
2019-03-28T05:59:54.818Z,1.60
2019-03-28T06:02:23.315Z,1.70
2019-03-28T06:04:51.721Z,1.80
2019-03-28T06:07:20.125Z,1.90
2019-03-28T06:09:48.527Z,2.00
2019-03-28T06:12:19.052Z,2.00
2019-03-28T06:14:47.071Z,2.10
2019-03-28T06:17:15.486Z,2.10
2019-03-28T06:19:43.900Z,2.10
2019-03-28T06:22:12.328Z,2.10
2019-03-28T06:24:40.744Z,2.10
2019-03-28T06:27:09.155Z,2.20
2019-03-28T06:29:37.551Z,2.30
2019-03-28T06:32:05.970Z,2.40
2019-03-28T06:34:34.358Z,2.40
2019-03-28T06:37:02.786Z,2.50
2019-03-28T06:39:31.169Z,2.60
2019-03-28T06:41:59.588Z,2.70
2019-03-28T06:44:27.990Z,2.90
2019-03-28T06:46:56.394Z,3.00
2019-03-28T06:49:24.799Z,3.20
2019-03-28T06:51:53.215Z,3.20
2019-03-28T06:54:24.206Z,3.40
2019-03-28T06:56:51.770Z,3.60
2019-03-28T06:59:20.225Z,3.70
2019-03-28T07:01:48.676Z,3.80
2019-03-28T07:04:17.068Z,3.90
2019-03-28T07:06:45.463Z,3.90
2019-03-28T07:09:13.863Z,4.00
2019-03-28T07:11:42.278Z,4.10
2019-03-28T07:14:10.666Z,4.20
2019-03-28T07:16:39.083Z,4.40
2019-03-28T07:19:07.497Z,4.50
2019-03-28T07:21:35.914Z,4.60
2019-03-28T07:24:04.445Z,4.70
2019-03-28T07:26:32.928Z,4.80
2019-03-28T07:29:01.345Z,5.00
2019-03-28T07:31:29.751Z,5.10
2019-03-28T07:33:58.152Z,5.40
2019-03-28T07:36:26.570Z,5.60
2019-03-28T07:38:54.975Z,5.70
2019-03-28T07:41:23.398Z,5.80
2019-03-28T07:43:51.792Z,6.00
2019-03-28T07:46:20.225Z,6.20
2019-03-28T07:48:48.632Z,6.30
2019-03-28T07:51:17.035Z,6.50
2019-03-28T07:53:45.461Z,6.70
2019-03-28T07:56:13.863Z,6.90
2019-03-28T07:58:44.198Z,7.10
2019-03-28T08:01:12.396Z,7.30
2019-03-28T08:03:40.832Z,7.50
2019-03-28T08:06:09.240Z,7.60
2019-03-28T08:08:39.201Z,7.60
2019-03-28T08:11:08.579Z,7.80
2019-03-28T08:13:37.078Z,8.00
2019-03-28T08:16:05.480Z,7.90
2019-03-28T08:18:33.901Z,8.00
2019-03-28T08:21:02.303Z,8.30
2019-03-28T08:23:30.702Z,8.40
2019-03-28T08:25:59.094Z,8.70
2019-03-28T08:28:27.525Z,8.60
2019-03-28T08:30:56.001Z,8.70
2019-03-28T08:33:24.483Z,8.80
2019-03-28T08:35:53.341Z,8.90
2019-03-28T08:38:22.898Z,8.90
2019-03-28T08:40:51.681Z,9.10
2019-03-28T08:43:20.290Z,9.10
2019-03-28T08:45:48.740Z,9.30
2019-03-28T08:48:17.241Z,9.50
2019-03-28T08:50:45.635Z,9.80
2019-03-28T08:53:14.043Z,10.00
2019-03-28T08:55:42.452Z,10.10
2019-03-28T08:58:10.867Z,10.30
2019-03-28T09:00:51.788Z,10.50
2019-03-28T09:03:09.497Z,10.70
2019-03-28T09:05:37.899Z,10.80
2019-03-28T09:08:09.373Z,11.00
2019-03-28T09:10:37.765Z,11.20
2019-03-28T09:13:06.269Z,11.30
2019-03-28T09:15:43.485Z,11.40
2019-03-28T09:18:05.450Z,11.60
2019-03-28T09:20:33.851Z,11.80
2019-03-28T09:23:21.599Z,12.00
2019-03-28T09:25:50.007Z,12.30
2019-03-28T09:28:18.440Z,12.50
2019-03-28T09:30:49.184Z,12.70
2019-03-28T09:33:16.983Z,12.80
2019-03-28T09:35:45.544Z,13.00
2019-03-28T09:38:13.981Z,13.00
2019-03-28T09:40:42.374Z,13.10
2019-03-28T09:43:30.127Z,13.40
2019-03-28T09:46:00.396Z,13.50
2019-03-28T09:48:28.663Z,13.80
2019-03-28T09:50:57.062Z,13.80
2019-03-28T09:53:25.491Z,13.80
2019-03-28T09:55:53.887Z,13.80
2019-03-28T09:58:22.313Z,14.00
2019-03-28T10:01:01.968Z,14.00
2019-03-28T10:03:21.315Z,14.20
2019-03-28T10:05:50.263Z,14.50
2019-03-28T10:08:18.685Z,14.70
2019-03-28T10:10:48.699Z,14.60
2019-03-28T10:13:17.641Z,14.30
2019-03-28T10:15:46.041Z,14.40
2019-03-28T10:18:14.442Z,14.60
2019-03-28T10:20:42.867Z,14.90
2019-03-28T10:23:11.285Z,15.00
2019-03-28T10:25:40.926Z,15.30
2019-03-28T10:28:09.318Z,15.30
2019-03-28T10:30:40.343Z,15.10
2019-03-28T10:33:09.171Z,15.20
2019-03-28T10:35:37.650Z,14.90
2019-03-28T10:38:06.287Z,14.90
2019-03-28T10:40:34.828Z,15.10
2019-03-28T10:43:03.229Z,15.10
2019-03-28T10:45:33.600Z,14.70
2019-03-28T10:48:01.744Z,14.70
2019-03-28T10:50:41.295Z,14.70
2019-03-28T10:53:00.286Z,14.80
2019-03-28T10:55:28.709Z,14.60
2019-03-28T10:57:57.108Z,14.40
2019-03-28T11:00:25.906Z,14.40
2019-03-28T11:02:54.664Z,14.60
2019-03-28T11:05:23.201Z,14.80
2019-03-28T11:07:51.628Z,15.10
2019-03-28T11:10:20.241Z,15.10
2019-03-28T11:12:48.650Z,15.30
2019-03-28T11:15:17.059Z,15.20
2019-03-28T11:17:45.464Z,15.40
2019-03-28T11:20:14.027Z,15.60
2019-03-28T11:22:42.432Z,15.90
2019-03-28T11:25:10.911Z,16.00
2019-03-28T11:27:39.323Z,16.00
2019-03-28T11:30:08.829Z,16.10
2019-03-28T11:32:37.235Z,16.50
2019-03-28T11:35:07.288Z,16.70
2019-03-28T11:37:36.591Z,16.70
2019-03-28T11:40:09.258Z,16.60
2019-03-28T11:42:37.830Z,16.50
2019-03-28T11:45:09.463Z,16.40
2019-03-28T11:47:38.410Z,16.00
2019-03-28T11:50:08.457Z,15.80
2019-03-28T11:52:37.016Z,15.60
2019-03-28T11:55:08.843Z,15.60
2019-03-28T11:57:37.773Z,15.80
2019-03-28T12:00:12.159Z,15.90
2019-03-28T12:02:40.571Z,15.90
2019-03-28T12:05:09.615Z,15.80
2019-03-28T12:07:37.993Z,16.00
2019-03-28T12:10:11.201Z,16.10
2019-03-28T12:12:39.606Z,16.30
2019-03-28T12:15:08.549Z,16.50
2019-03-28T12:17:36.956Z,16.70
2019-03-28T12:20:08.668Z,17.00
2019-03-28T12:22:37.143Z,17.30
2019-03-28T12:25:06.832Z,17.20
2019-03-28T12:27:35.233Z,17.40
2019-03-28T12:30:05.678Z,17.60
2019-03-28T12:32:34.065Z,17.90
2019-03-28T12:35:02.493Z,18.00
2019-03-28T12:37:30.887Z,17.90
2019-03-28T12:40:00.092Z,17.90
2019-03-28T12:42:28.667Z,17.90
2019-03-28T12:44:57.649Z,17.80
2019-03-28T12:47:40.998Z,17.80
2019-03-28T12:49:57.489Z,17.60
2019-03-28T12:52:26.225Z,17.40
2019-03-28T12:54:54.934Z,17.00
2019-03-28T12:57:23.402Z,17.10
2019-03-28T12:59:53.615Z,17.10
2019-03-28T13:02:28.653Z,17.30
2019-03-28T13:04:52.088Z,17.30
2019-03-28T13:07:20.505Z,16.90
2019-03-28T13:09:48.893Z,16.90
2019-03-28T13:12:17.285Z,17.00
2019-03-28T13:14:45.686Z,17.10
2019-03-28T13:17:14.174Z,17.20
2019-03-28T13:19:42.593Z,17.40
2019-03-28T13:22:10.979Z,17.40
2019-03-28T13:24:39.459Z,17.60
2019-03-28T13:27:07.856Z,17.70
2019-03-28T13:29:36.263Z,17.70
2019-03-28T13:32:04.667Z,17.60
2019-03-28T13:34:33.058Z,17.50
2019-03-28T13:37:01.465Z,17.10
2019-03-28T13:39:29.870Z,16.90
2019-03-28T13:41:58.271Z,16.90
2019-03-28T13:44:26.681Z,17.00
2019-03-28T13:46:55.082Z,17.20
2019-03-28T13:49:23.479Z,17.20
2019-03-28T13:51:51.895Z,17.30
2019-03-28T13:54:39.647Z,17.40
2019-03-28T13:57:08.051Z,17.50
2019-03-28T13:59:43.214Z,17.50
2019-03-28T14:02:11.618Z,17.60
2019-03-28T14:04:40.030Z,17.50
2019-03-28T14:07:08.447Z,17.40
2019-03-28T14:09:36.845Z,17.60
2019-03-28T14:12:05.317Z,17.80
2019-03-28T14:14:33.719Z,18.00
2019-03-28T14:17:02.138Z,17.80
2019-03-28T14:19:30.540Z,17.40
2019-03-28T14:21:58.965Z,17.20
2019-03-28T14:24:27.385Z,17.20
2019-03-28T14:27:15.119Z,17.30
2019-03-28T14:29:43.540Z,17.40
2019-03-28T14:32:11.940Z,17.30
2019-03-28T14:34:40.355Z,17.10
2019-03-28T14:37:08.825Z,17.40
2019-03-28T14:39:37.230Z,17.20
2019-03-28T14:42:05.626Z,17.20
2019-03-28T14:44:34.043Z,17.10
2019-03-28T14:47:03.401Z,16.90
2019-03-28T14:49:31.825Z,17.10
2019-03-28T14:52:00.240Z,17.20
2019-03-28T14:54:28.638Z,17.30
2019-03-28T14:56:58.275Z,17.10
2019-03-28T14:59:32.850Z,16.90
2019-03-28T15:01:57.358Z,17.00
2019-03-28T15:04:25.800Z,17.10
2019-03-28T15:06:54.588Z,17.00
2019-03-28T15:09:23.025Z,17.00
2019-03-28T15:11:51.389Z,17.10
2019-03-28T15:14:20.373Z,17.30
2019-03-28T15:16:49.661Z,17.40
2019-03-28T15:19:18.087Z,17.50
2019-03-28T15:21:46.477Z,17.50
2019-03-28T15:24:14.885Z,17.50
2019-03-28T15:26:43.523Z,17.60
2019-03-28T15:29:11.985Z,17.50
2019-03-28T15:31:40.381Z,17.40
2019-03-28T15:34:08.844Z,17.30
2019-03-28T15:36:37.251Z,17.20
2019-03-28T15:39:07.900Z,17.00
2019-03-28T15:41:36.832Z,16.80
2019-03-28T15:44:05.314Z,16.60
2019-03-28T15:46:33.702Z,16.40
2019-03-28T15:49:02.120Z,16.40
2019-03-28T15:51:30.524Z,16.40
2019-03-28T15:53:59.215Z,16.30
2019-03-28T15:56:27.642Z,16.30
2019-03-28T15:58:56.051Z,16.20
2019-03-28T16:01:24.453Z,16.00
2019-03-28T16:03:53.583Z,15.90
2019-03-28T16:06:24.125Z,15.90
2019-03-28T16:08:52.265Z,15.80
2019-03-28T16:11:20.681Z,15.60
2019-03-28T16:13:49.071Z,15.40
2019-03-28T16:16:17.481Z,15.50
2019-03-28T16:18:45.896Z,15.60
2019-03-28T16:21:14.281Z,15.60
2019-03-28T16:23:42.693Z,15.60
2019-03-28T16:26:11.089Z,15.60
2019-03-28T16:28:40.739Z,15.60
2019-03-28T16:31:09.297Z,15.70
2019-03-28T16:33:37.694Z,15.60
2019-03-28T16:36:06.106Z,15.50
2019-03-28T16:38:35.482Z,15.40
2019-03-28T16:41:03.886Z,15.40
2019-03-28T16:43:32.306Z,15.30
2019-03-28T16:46:00.716Z,15.20
2019-03-28T16:48:29.112Z,15.20
2019-03-28T16:50:57.516Z,15.20
2019-03-28T16:53:25.912Z,15.20
2019-03-28T16:55:54.624Z,15.10
2019-03-28T16:58:23.228Z,15.10
2019-03-28T17:00:51.640Z,15.00
2019-03-28T17:03:20.044Z,15.00
2019-03-28T17:05:48.447Z,14.90
2019-03-28T17:08:17.705Z,14.80
2019-03-28T17:10:48.785Z,14.70
2019-03-28T17:13:17.567Z,14.70
2019-03-28T17:15:46.166Z,14.60
2019-03-28T17:18:14.621Z,14.60
2019-03-28T17:20:43.105Z,14.40
2019-03-28T17:23:11.576Z,14.30
2019-03-28T17:25:39.982Z,14.20
2019-03-28T17:28:08.595Z,14.10
2019-03-28T17:30:36.999Z,14.00
2019-03-28T17:33:05.940Z,13.80
2019-03-28T17:35:34.481Z,13.80
2019-03-28T17:38:02.869Z,13.70
2019-03-28T17:40:31.299Z,13.60
2019-03-28T17:42:59.713Z,13.50
2019-03-28T17:45:30.069Z,13.40
2019-03-28T17:47:58.479Z,13.20
2019-03-28T17:50:26.872Z,13.10
2019-03-28T17:52:55.360Z,13.00
2019-03-28T17:55:24.646Z,12.90
2019-03-28T17:57:53.701Z,12.60
2019-03-28T18:00:22.730Z,12.50
2019-03-28T18:02:51.567Z,12.30
2019-03-28T18:05:20.003Z,12.20
2019-03-28T18:07:48.408Z,11.90
2019-03-28T18:10:17.053Z,11.80
2019-03-28T18:12:45.522Z,11.80
2019-03-28T18:15:15.550Z,11.60
2019-03-28T18:17:44.077Z,11.50
2019-03-28T18:20:13.615Z,11.40
2019-03-28T18:22:42.020Z,11.20
2019-03-28T18:25:10.834Z,11.00
2019-03-28T18:27:39.250Z,10.80
2019-03-28T18:30:08.392Z,10.80
2019-03-28T18:32:39.325Z,10.70
2019-03-28T18:35:08.636Z,10.70
2019-03-28T18:37:37.048Z,10.70
2019-03-28T18:40:07.091Z,10.80
2019-03-28T18:42:35.491Z,10.80
2019-03-28T18:45:07.762Z,10.80
2019-03-28T18:47:36.394Z,10.90
2019-03-28T18:50:06.330Z,11.00
2019-03-28T18:52:35.702Z,11.00
2019-03-28T18:55:06.050Z,11.00
2019-03-28T18:57:34.446Z,11.10
2019-03-28T19:00:03.718Z,11.20
2019-03-28T19:02:32.139Z,11.30
2019-03-28T19:05:00.547Z,11.30
2019-03-28T19:07:28.949Z,11.40
2019-03-28T19:09:57.352Z,11.50
2019-03-28T19:12:26.733Z,11.60
2019-03-28T19:14:55.139Z,11.80
2019-03-28T19:17:23.558Z,11.70
2019-03-28T19:19:51.960Z,11.80
2019-03-28T19:22:20.374Z,11.80
2019-03-28T19:24:54.661Z,11.90
2019-03-28T19:27:23.073Z,12.00
2019-03-28T19:29:51.554Z,12.20
2019-03-28T19:32:19.957Z,12.20
2019-03-28T19:34:48.364Z,12.30
2019-03-28T19:37:16.904Z,12.40
2019-03-28T19:39:45.285Z,12.40
2019-03-28T19:42:15.678Z,12.50
2019-03-28T19:44:44.427Z,12.50
2019-03-28T19:47:12.847Z,12.40
2019-03-28T19:49:41.398Z,12.50
2019-03-28T19:52:13.027Z,12.60
2019-03-28T19:54:39.934Z,12.70
2019-03-28T19:57:08.367Z,12.60
2019-03-28T19:59:36.771Z,12.70
2019-03-28T20:02:05.310Z,12.70
2019-03-28T20:04:35.246Z,12.80
2019-03-28T20:07:03.678Z,12.70
2019-03-28T20:09:32.054Z,12.70
2019-03-28T20:12:03.445Z,12.80
2019-03-28T20:14:30.579Z,12.70
2019-03-28T20:16:58.974Z,12.70
2019-03-28T20:19:28.927Z,12.70
2019-03-28T20:21:59.500Z,12.70
2019-03-28T20:24:27.642Z,12.70
2019-03-28T20:26:56.249Z,12.70
2019-03-28T20:29:24.819Z,12.70
2019-03-28T20:31:53.218Z,12.60
2019-03-28T20:34:21.618Z,12.50
2019-03-28T20:36:52.658Z,12.50
2019-03-28T20:39:20.163Z,12.60
2019-03-28T20:41:48.557Z,12.50
2019-03-28T20:44:16.963Z,12.50
2019-03-28T20:46:45.371Z,12.60
2019-03-28T20:49:13.783Z,12.60
2019-03-28T20:51:42.184Z,12.60
2019-03-28T20:54:10.609Z,12.60
2019-03-28T20:56:39.962Z,12.60
2019-03-28T20:59:08.358Z,12.50
2019-03-28T21:01:36.769Z,12.50
2019-03-28T21:04:05.222Z,12.50
2019-03-28T21:06:34.013Z,12.60
2019-03-28T21:09:03.464Z,12.50
2019-03-28T21:11:31.864Z,12.50
2019-03-28T21:14:00.281Z,12.50
2019-03-28T21:16:28.772Z,12.60
2019-03-28T21:18:57.179Z,12.50
2019-03-28T21:21:25.593Z,12.50
2019-03-28T21:23:53.991Z,12.40
2019-03-28T21:26:23.360Z,12.40
2019-03-28T21:28:51.755Z,12.30
2019-03-28T21:31:20.163Z,12.30
2019-03-28T21:33:48.608Z,12.40
2019-03-28T21:36:29.007Z,12.30
2019-03-28T21:38:48.120Z,12.20
2019-03-28T21:41:16.514Z,12.20
2019-03-28T21:43:44.919Z,12.20
2019-03-28T21:46:13.314Z,12.20
2019-03-28T21:48:42.914Z,12.20
2019-03-28T21:51:11.824Z,12.10
2019-03-28T21:53:40.279Z,12.10
2019-03-28T21:56:08.757Z,12.00
2019-03-28T21:58:37.163Z,11.90
2019-03-28T22:01:05.582Z,11.90
2019-03-28T22:03:34.851Z,11.80
2019-03-28T22:06:03.261Z,11.80
2019-03-28T22:08:32.231Z,11.70
2019-03-28T22:11:01.246Z,11.60
2019-03-28T22:13:29.651Z,11.60
2019-03-28T22:15:59.184Z,11.60
2019-03-28T22:18:27.603Z,11.60
2019-03-28T22:20:56.006Z,11.60
2019-03-28T22:23:24.433Z,11.60
2019-03-28T22:25:52.847Z,11.70
2019-03-28T22:28:21.251Z,11.70
2019-03-28T22:30:49.646Z,11.70
2019-03-28T22:33:18.054Z,11.70
2019-03-28T22:35:46.452Z,11.70
2019-03-28T22:38:14.877Z,11.70
2019-03-28T22:40:43.897Z,11.70
2019-03-28T22:43:12.470Z,11.70
2019-03-28T22:45:40.866Z,11.80
2019-03-28T22:48:11.085Z,11.80
2019-03-28T22:50:39.392Z,11.80
2019-03-28T22:53:07.789Z,11.70
2019-03-28T22:55:36.197Z,11.60
2019-03-28T22:58:05.053Z,11.60
2019-03-28T23:00:41.815Z,11.50
2019-03-28T23:03:10.363Z,11.40
2019-03-28T23:05:38.763Z,11.40
2019-03-28T23:08:07.243Z,11.40
2019-03-28T23:10:35.653Z,11.40
2019-03-28T23:13:04.134Z,11.40
2019-03-28T23:15:32.605Z,11.40
2019-03-28T23:18:01.001Z,11.30
2019-03-28T23:20:29.399Z,11.30
2019-03-28T23:22:57.830Z,11.30
2019-03-28T23:25:26.206Z,11.20
2019-03-28T23:27:55.538Z,11.10
2019-03-28T23:30:23.995Z,11.00
2019-03-28T23:32:52.397Z,10.90
2019-03-28T23:35:20.805Z,10.80
2019-03-28T23:37:49.226Z,10.70
2019-03-28T23:40:17.618Z,10.70
2019-03-28T23:42:46.057Z,10.60
2019-03-28T23:45:14.688Z,10.60
2019-03-28T23:47:43.114Z,10.50
2019-03-28T23:50:11.674Z,10.40
2019-03-28T23:52:40.125Z,10.40
2019-03-28T23:55:08.797Z,10.30
2019-03-28T23:57:37.208Z,10.30
